sensor_id;sensor_type;location;lat;lon;timestamp;temperature;humidity
57636;DHT22;43465;50.728;4.160;2022-09-25T00:00:30;14.80;99.90
57636;DHT22;43465;50.728;4.160;2022-09-25T00:02:55;14.80;99.90
57636;DHT22;43465;50.728;4.160;2022-09-25T00:05:21;14.80;99.90
57636;DHT22;43465;50.728;4.160;2022-09-25T00:07:47;14.70;99.90
57636;DHT22;43465;50.728;4.160;2022-09-25T00:10:12;14.70;99.90
57636;DHT22;43465;50.728;4.160;2022-09-25T00:12:38;14.70;99.90
57636;DHT22;43465;50.728;4.160;2022-09-25T00:15:06;14.70;99.90
57636;DHT22;43465;50.728;4.160;2022-09-25T00:17:32;14.70;99.90
57636;DHT22;43465;50.728;4.160;2022-09-25T00:19:58;14.60;99.90
57636;DHT22;43465;50.728;4.160;2022-09-25T00:22:24;14.70;99.90
57636;DHT22;43465;50.728;4.160;2022-09-25T00:24:51;14.60;99.90
57636;DHT22;43465;50.728;4.160;2022-09-25T00:27:17;14.60;99.90
57636;DHT22;43465;50.728;4.160;2022-09-25T00:29:44;14.50;99.90
57636;DHT22;43465;50.728;4.160;2022-09-25T00:32:12;14.50;99.90
57636;DHT22;43465;50.728;4.160;2022-09-25T00:34:38;14.50;99.90
57636;DHT22;43465;50.728;4.160;2022-09-25T00:37:05;14.50;99.90
57636;DHT22;43465;50.728;4.160;2022-09-25T00:39:32;14.50;99.90
57636;DHT22;43465;50.728;4.160;2022-09-25T00:41:58;14.60;99.90
57636;DHT22;43465;50.728;4.160;2022-09-25T00:47:12;14.50;99.90
57636;DHT22;43465;50.728;4.160;2022-09-25T00:49:39;14.50;99.90
57636;DHT22;43465;50.728;4.160;2022-09-25T00:52:10;14.50;99.90
57636;DHT22;43465;50.728;4.160;2022-09-25T00:54:43;14.50;99.90
57636;DHT22;43465;50.728;4.160;2022-09-25T00:57:14;14.40;99.90
57636;DHT22;43465;50.728;4.160;2022-09-25T00:59:45;14.40;99.90
57636;DHT22;43465;50.728;4.160;2022-09-25T01:02:20;14.40;99.90
57636;DHT22;43465;50.728;4.160;2022-09-25T01:04:50;14.40;99.90
57636;DHT22;43465;50.728;4.160;2022-09-25T01:07:17;14.30;99.90
57636;DHT22;43465;50.728;4.160;2022-09-25T01:09:44;14.30;99.90
57636;DHT22;43465;50.728;4.160;2022-09-25T01:12:10;14.30;99.90
57636;DHT22;43465;50.728;4.160;2022-09-25T01:14:36;14.30;99.90
57636;DHT22;43465;50.728;4.160;2022-09-25T01:20:20;14.30;99.90
57636;DHT22;43465;50.728;4.160;2022-09-25T01:25:56;14.20;99.90
57636;DHT22;43465;50.728;4.160;2022-09-25T01:31:12;14.20;99.90
57636;DHT22;43465;50.728;4.160;2022-09-25T01:33:46;14.20;99.90
57636;DHT22;43465;50.728;4.160;2022-09-25T01:36:22;14.20;99.90
57636;DHT22;43465;50.728;4.160;2022-09-25T01:38:53;14.20;99.90
57636;DHT22;43465;50.728;4.160;2022-09-25T01:41:26;14.20;99.90
57636;DHT22;43465;50.728;4.160;2022-09-25T01:44:05;14.20;99.90
57636;DHT22;43465;50.728;4.160;2022-09-25T01:46:41;14.20;99.90
57636;DHT22;43465;50.728;4.160;2022-09-25T01:49:18;14.10;99.90
57636;DHT22;43465;50.728;4.160;2022-09-25T01:51:51;14.10;99.90
57636;DHT22;43465;50.728;4.160;2022-09-25T01:54:23;14.00;99.90
57636;DHT22;43465;50.728;4.160;2022-09-25T01:57:04;13.90;99.90
57636;DHT22;43465;50.728;4.160;2022-09-25T01:59:56;13.80;99.90
57636;DHT22;43465;50.728;4.160;2022-09-25T02:02:31;13.80;99.90
57636;DHT22;43465;50.728;4.160;2022-09-25T02:05:13;13.80;99.90
57636;DHT22;43465;50.728;4.160;2022-09-25T02:07:44;13.80;99.90
57636;DHT22;43465;50.728;4.160;2022-09-25T02:10:28;13.80;99.90
57636;DHT22;43465;50.728;4.160;2022-09-25T02:13:04;13.80;99.90
57636;DHT22;43465;50.728;4.160;2022-09-25T02:15:34;13.80;99.90
57636;DHT22;43465;50.728;4.160;2022-09-25T02:18:13;13.80;99.90
57636;DHT22;43465;50.728;4.160;2022-09-25T02:26:45;13.60;99.90
57636;DHT22;43465;50.728;4.160;2022-09-25T02:29:12;13.50;99.90
57636;DHT22;43465;50.728;4.160;2022-09-25T02:34:43;13.30;99.90
57636;DHT22;43465;50.728;4.160;2022-09-25T02:37:14;13.30;99.90
57636;DHT22;43465;50.728;4.160;2022-09-25T02:39:41;13.40;99.90
57636;DHT22;43465;50.728;4.160;2022-09-25T02:45:23;13.20;99.90
57636;DHT22;43465;50.728;4.160;2022-09-25T02:48:02;13.20;99.90
57636;DHT22;43465;50.728;4.160;2022-09-25T02:51:19;13.20;99.90
57636;DHT22;43465;50.728;4.160;2022-09-25T02:54:05;13.20;99.90
57636;DHT22;43465;50.728;4.160;2022-09-25T02:56:47;13.30;99.90
57636;DHT22;43465;50.728;4.160;2022-09-25T02:59:25;13.30;99.90
57636;DHT22;43465;50.728;4.160;2022-09-25T03:01:53;13.40;99.90
57636;DHT22;43465;50.728;4.160;2022-09-25T03:04:21;13.50;99.90
57636;DHT22;43465;50.728;4.160;2022-09-25T03:06:48;13.60;99.90
57636;DHT22;43465;50.728;4.160;2022-09-25T03:09:16;13.60;99.90
57636;DHT22;43465;50.728;4.160;2022-09-25T03:11:45;13.60;99.90
57636;DHT22;43465;50.728;4.160;2022-09-25T03:14:11;13.60;99.90
57636;DHT22;43465;50.728;4.160;2022-09-25T03:16:51;13.60;99.90
57636;DHT22;43465;50.728;4.160;2022-09-25T03:19:21;13.50;99.90
57636;DHT22;43465;50.728;4.160;2022-09-25T03:21:48;13.40;99.90
57636;DHT22;43465;50.728;4.160;2022-09-25T03:24:15;13.40;99.90
57636;DHT22;43465;50.728;4.160;2022-09-25T03:26:41;13.00;99.90
57636;DHT22;43465;50.728;4.160;2022-09-25T03:29:07;13.00;99.90
57636;DHT22;43465;50.728;4.160;2022-09-25T03:31:33;13.10;99.90
57636;DHT22;43465;50.728;4.160;2022-09-25T03:33:59;13.10;99.90
57636;DHT22;43465;50.728;4.160;2022-09-25T03:36:27;13.00;99.90
57636;DHT22;43465;50.728;4.160;2022-09-25T03:38:54;13.10;99.90
57636;DHT22;43465;50.728;4.160;2022-09-25T03:41:25;13.00;99.90
57636;DHT22;43465;50.728;4.160;2022-09-25T03:43:52;12.90;99.90
57636;DHT22;43465;50.728;4.160;2022-09-25T03:46:26;12.90;99.90
57636;DHT22;43465;50.728;4.160;2022-09-25T03:48:53;12.90;99.90
57636;DHT22;43465;50.728;4.160;2022-09-25T03:51:19;12.80;99.90
57636;DHT22;43465;50.728;4.160;2022-09-25T03:53:46;12.70;99.90
57636;DHT22;43465;50.728;4.160;2022-09-25T03:56:15;12.80;99.90
57636;DHT22;43465;50.728;4.160;2022-09-25T03:58:45;12.70;99.90
57636;DHT22;43465;50.728;4.160;2022-09-25T04:01:12;12.70;99.90
57636;DHT22;43465;50.728;4.160;2022-09-25T04:03:38;12.70;99.90
57636;DHT22;43465;50.728;4.160;2022-09-25T04:06:06;12.70;99.90
57636;DHT22;43465;50.728;4.160;2022-09-25T04:08:34;12.60;99.90
57636;DHT22;43465;50.728;4.160;2022-09-25T04:11:00;12.60;99.90
57636;DHT22;43465;50.728;4.160;2022-09-25T04:13:29;12.70;99.90
57636;DHT22;43465;50.728;4.160;2022-09-25T04:15:56;12.60;99.90
57636;DHT22;43465;50.728;4.160;2022-09-25T04:18:23;12.60;99.90
57636;DHT22;43465;50.728;4.160;2022-09-25T04:20:49;12.60;99.90
57636;DHT22;43465;50.728;4.160;2022-09-25T04:23:15;12.60;99.90
57636;DHT22;43465;50.728;4.160;2022-09-25T04:25:42;12.60;99.90
57636;DHT22;43465;50.728;4.160;2022-09-25T04:28:08;12.60;99.90
57636;DHT22;43465;50.728;4.160;2022-09-25T04:30:34;12.60;99.90
57636;DHT22;43465;50.728;4.160;2022-09-25T04:33:00;12.60;99.90
57636;DHT22;43465;50.728;4.160;2022-09-25T04:35:44;12.50;99.90
57636;DHT22;43465;50.728;4.160;2022-09-25T04:38:10;12.40;99.90
57636;DHT22;43465;50.728;4.160;2022-09-25T04:40:36;12.40;99.90
57636;DHT22;43465;50.728;4.160;2022-09-25T04:43:04;12.40;99.90
57636;DHT22;43465;50.728;4.160;2022-09-25T04:45:32;12.40;99.90
57636;DHT22;43465;50.728;4.160;2022-09-25T04:47:59;12.30;99.90
57636;DHT22;43465;50.728;4.160;2022-09-25T04:50:26;12.30;99.90
57636;DHT22;43465;50.728;4.160;2022-09-25T04:52:52;12.30;99.90
57636;DHT22;43465;50.728;4.160;2022-09-25T04:55:19;12.30;99.90
57636;DHT22;43465;50.728;4.160;2022-09-25T04:57:57;12.20;99.90
57636;DHT22;43465;50.728;4.160;2022-09-25T05:00:25;12.30;99.90
57636;DHT22;43465;50.728;4.160;2022-09-25T05:02:51;12.30;99.90
57636;DHT22;43465;50.728;4.160;2022-09-25T05:05:17;12.20;99.90
57636;DHT22;43465;50.728;4.160;2022-09-25T05:07:51;12.20;99.90
57636;DHT22;43465;50.728;4.160;2022-09-25T05:10:16;12.20;99.90
57636;DHT22;43465;50.728;4.160;2022-09-25T05:12:42;12.20;99.90
57636;DHT22;43465;50.728;4.160;2022-09-25T05:15:08;12.20;99.90
57636;DHT22;43465;50.728;4.160;2022-09-25T05:17:34;12.10;99.90
57636;DHT22;43465;50.728;4.160;2022-09-25T05:20:00;12.20;99.90
57636;DHT22;43465;50.728;4.160;2022-09-25T05:22:27;12.20;99.90
57636;DHT22;43465;50.728;4.160;2022-09-25T05:24:53;12.30;99.90
57636;DHT22;43465;50.728;4.160;2022-09-25T05:27:18;12.30;99.90
57636;DHT22;43465;50.728;4.160;2022-09-25T05:29:45;12.40;99.90
57636;DHT22;43465;50.728;4.160;2022-09-25T05:32:11;12.40;99.90
57636;DHT22;43465;50.728;4.160;2022-09-25T05:34:36;12.30;99.90
57636;DHT22;43465;50.728;4.160;2022-09-25T05:37:02;12.30;99.90
57636;DHT22;43465;50.728;4.160;2022-09-25T05:39:28;12.20;99.90
57636;DHT22;43465;50.728;4.160;2022-09-25T05:41:53;12.20;99.90
57636;DHT22;43465;50.728;4.160;2022-09-25T05:44:19;12.30;99.90
57636;DHT22;43465;50.728;4.160;2022-09-25T05:46:45;12.20;99.90
57636;DHT22;43465;50.728;4.160;2022-09-25T05:49:11;12.20;99.90
57636;DHT22;43465;50.728;4.160;2022-09-25T05:51:37;11.90;99.90
57636;DHT22;43465;50.728;4.160;2022-09-25T05:54:02;12.00;99.90
57636;DHT22;43465;50.728;4.160;2022-09-25T05:56:28;11.90;99.90
57636;DHT22;43465;50.728;4.160;2022-09-25T05:58:54;12.00;99.90
57636;DHT22;43465;50.728;4.160;2022-09-25T06:01:22;12.10;99.90
57636;DHT22;43465;50.728;4.160;2022-09-25T06:03:48;12.20;99.90
57636;DHT22;43465;50.728;4.160;2022-09-25T06:06:14;12.30;99.90
57636;DHT22;43465;50.728;4.160;2022-09-25T06:08:40;12.30;99.90
57636;DHT22;43465;50.728;4.160;2022-09-25T06:11:06;12.40;99.90
57636;DHT22;43465;50.728;4.160;2022-09-25T06:13:32;12.40;99.90
57636;DHT22;43465;50.728;4.160;2022-09-25T06:15:59;12.40;99.90
57636;DHT22;43465;50.728;4.160;2022-09-25T06:18:26;12.40;99.90
57636;DHT22;43465;50.728;4.160;2022-09-25T06:21:02;12.20;99.90
57636;DHT22;43465;50.728;4.160;2022-09-25T06:23:28;12.20;99.90
57636;DHT22;43465;50.728;4.160;2022-09-25T06:25:54;12.20;99.90
57636;DHT22;43465;50.728;4.160;2022-09-25T06:28:23;12.20;99.90
57636;DHT22;43465;50.728;4.160;2022-09-25T06:30:49;12.20;99.90
57636;DHT22;43465;50.728;4.160;2022-09-25T06:33:15;12.40;99.90
57636;DHT22;43465;50.728;4.160;2022-09-25T06:35:45;12.50;99.90
57636;DHT22;43465;50.728;4.160;2022-09-25T06:38:12;12.60;99.90
57636;DHT22;43465;50.728;4.160;2022-09-25T06:40:38;12.70;99.90
57636;DHT22;43465;50.728;4.160;2022-09-25T06:43:06;12.80;99.90
57636;DHT22;43465;50.728;4.160;2022-09-25T06:45:34;12.80;99.90
57636;DHT22;43465;50.728;4.160;2022-09-25T06:48:05;12.90;99.90
57636;DHT22;43465;50.728;4.160;2022-09-25T06:50:51;12.80;99.90
57636;DHT22;43465;50.728;4.160;2022-09-25T06:53:19;12.90;99.90
57636;DHT22;43465;50.728;4.160;2022-09-25T06:55:45;13.10;99.90
57636;DHT22;43465;50.728;4.160;2022-09-25T06:58:14;13.10;99.90
57636;DHT22;43465;50.728;4.160;2022-09-25T07:00:39;13.20;99.90
57636;DHT22;43465;50.728;4.160;2022-09-25T07:03:05;13.20;99.90
57636;DHT22;43465;50.728;4.160;2022-09-25T07:05:49;13.30;99.90
57636;DHT22;43465;50.728;4.160;2022-09-25T07:08:17;13.30;99.90
57636;DHT22;43465;50.728;4.160;2022-09-25T07:10:50;13.30;99.90
57636;DHT22;43465;50.728;4.160;2022-09-25T07:13:17;13.30;99.90
57636;DHT22;43465;50.728;4.160;2022-09-25T07:15:49;13.20;99.90
57636;DHT22;43465;50.728;4.160;2022-09-25T07:18:14;13.20;99.90
57636;DHT22;43465;50.728;4.160;2022-09-25T07:20:40;13.30;99.90
57636;DHT22;43465;50.728;4.160;2022-09-25T07:23:05;13.30;99.90
57636;DHT22;43465;50.728;4.160;2022-09-25T07:25:31;13.40;99.90
57636;DHT22;43465;50.728;4.160;2022-09-25T07:27:57;13.50;99.90
57636;DHT22;43465;50.728;4.160;2022-09-25T07:30:27;13.50;99.90
57636;DHT22;43465;50.728;4.160;2022-09-25T07:32:54;13.60;99.90
57636;DHT22;43465;50.728;4.160;2022-09-25T07:35:19;13.60;99.90
57636;DHT22;43465;50.728;4.160;2022-09-25T07:37:45;13.70;99.90
57636;DHT22;43465;50.728;4.160;2022-09-25T07:40:11;13.60;99.90
57636;DHT22;43465;50.728;4.160;2022-09-25T07:42:40;13.80;99.90
57636;DHT22;43465;50.728;4.160;2022-09-25T07:45:06;13.90;99.90
57636;DHT22;43465;50.728;4.160;2022-09-25T07:47:32;13.90;99.90
57636;DHT22;43465;50.728;4.160;2022-09-25T07:49:58;14.00;99.90
57636;DHT22;43465;50.728;4.160;2022-09-25T07:52:24;14.10;99.90
57636;DHT22;43465;50.728;4.160;2022-09-25T07:54:49;14.10;99.90
57636;DHT22;43465;50.728;4.160;2022-09-25T07:57:15;14.20;99.90
57636;DHT22;43465;50.728;4.160;2022-09-25T07:59:47;14.20;99.90
57636;DHT22;43465;50.728;4.160;2022-09-25T08:02:18;14.20;99.90
57636;DHT22;43465;50.728;4.160;2022-09-25T08:04:43;14.30;99.90
57636;DHT22;43465;50.728;4.160;2022-09-25T08:07:09;14.30;99.90
57636;DHT22;43465;50.728;4.160;2022-09-25T08:09:35;14.40;99.90
57636;DHT22;43465;50.728;4.160;2022-09-25T08:12:01;14.40;99.90
57636;DHT22;43465;50.728;4.160;2022-09-25T08:14:27;14.50;99.90
57636;DHT22;43465;50.728;4.160;2022-09-25T08:16:53;14.50;99.90
57636;DHT22;43465;50.728;4.160;2022-09-25T08:19:20;14.60;99.90
57636;DHT22;43465;50.728;4.160;2022-09-25T08:21:48;14.60;99.90
57636;DHT22;43465;50.728;4.160;2022-09-25T08:24:14;14.70;99.90
57636;DHT22;43465;50.728;4.160;2022-09-25T08:26:40;14.80;99.90
57636;DHT22;43465;50.728;4.160;2022-09-25T08:29:06;14.80;99.90
57636;DHT22;43465;50.728;4.160;2022-09-25T08:31:34;14.90;99.90
57636;DHT22;43465;50.728;4.160;2022-09-25T08:34:00;15.00;99.90
57636;DHT22;43465;50.728;4.160;2022-09-25T08:36:26;15.10;99.90
57636;DHT22;43465;50.728;4.160;2022-09-25T08:38:51;15.10;99.90
57636;DHT22;43465;50.728;4.160;2022-09-25T08:41:33;15.10;99.90
57636;DHT22;43465;50.728;4.160;2022-09-25T08:47:13;15.40;99.90
57636;DHT22;43465;50.728;4.160;2022-09-25T08:50:15;15.50;99.90
57636;DHT22;43465;50.728;4.160;2022-09-25T08:52:45;15.60;99.90
57636;DHT22;43465;50.728;4.160;2022-09-25T08:55:25;15.70;99.90
57636;DHT22;43465;50.728;4.160;2022-09-25T08:58:21;15.70;99.90
57636;DHT22;43465;50.728;4.160;2022-09-25T09:00:53;15.80;99.90
57636;DHT22;43465;50.728;4.160;2022-09-25T09:03:21;15.90;99.90
57636;DHT22;43465;50.728;4.160;2022-09-25T09:05:55;16.00;99.90
57636;DHT22;43465;50.728;4.160;2022-09-25T09:08:23;15.90;99.90
57636;DHT22;43465;50.728;4.160;2022-09-25T09:10:57;16.00;99.90
57636;DHT22;43465;50.728;4.160;2022-09-25T09:13:34;16.10;99.90
57636;DHT22;43465;50.728;4.160;2022-09-25T09:18:53;16.30;99.90
57636;DHT22;43465;50.728;4.160;2022-09-25T09:24:27;16.50;99.90
57636;DHT22;43465;50.728;4.160;2022-09-25T09:46:31;16.80;99.90
57636;DHT22;43465;50.728;4.160;2022-09-25T09:51:43;17.10;99.90
57636;DHT22;43465;50.728;4.160;2022-09-25T09:57:11;17.40;99.90
57636;DHT22;43465;50.728;4.160;2022-09-25T09:59:46;17.40;99.90
57636;DHT22;43465;50.728;4.160;2022-09-25T10:02:42;17.20;99.90
57636;DHT22;43465;50.728;4.160;2022-09-25T10:05:27;17.10;99.90
57636;DHT22;43465;50.728;4.160;2022-09-25T10:07:54;16.90;99.90
57636;DHT22;43465;50.728;4.160;2022-09-25T10:12:57;16.60;99.90
57636;DHT22;43465;50.728;4.160;2022-09-25T10:15:48;16.60;99.90
57636;DHT22;43465;50.728;4.160;2022-09-25T10:18:17;16.60;99.90
57636;DHT22;43465;50.728;4.160;2022-09-25T10:21:13;16.70;99.90
57636;DHT22;43465;50.728;4.160;2022-09-25T10:26:30;17.20;99.90
57636;DHT22;43465;50.728;4.160;2022-09-25T10:29:02;17.50;99.90
57636;DHT22;43465;50.728;4.160;2022-09-25T10:31:32;17.60;99.90
57636;DHT22;43465;50.728;4.160;2022-09-25T10:36:41;17.90;99.90
57636;DHT22;43465;50.728;4.160;2022-09-25T10:41:48;17.90;99.90
57636;DHT22;43465;50.728;4.160;2022-09-25T10:44:35;18.00;99.90
57636;DHT22;43465;50.728;4.160;2022-09-25T10:47:29;18.10;99.90
57636;DHT22;43465;50.728;4.160;2022-09-25T10:50:22;18.30;99.90
57636;DHT22;43465;50.728;4.160;2022-09-25T10:52:50;18.40;99.90
57636;DHT22;43465;50.728;4.160;2022-09-25T10:58:03;18.50;99.90
57636;DHT22;43465;50.728;4.160;2022-09-25T11:00:30;18.50;99.90
57636;DHT22;43465;50.728;4.160;2022-09-25T11:03:00;18.40;99.90
57636;DHT22;43465;50.728;4.160;2022-09-25T11:05:36;18.20;99.90
57636;DHT22;43465;50.728;4.160;2022-09-25T11:08:05;18.10;99.90
57636;DHT22;43465;50.728;4.160;2022-09-25T11:10:36;18.00;99.90
57636;DHT22;43465;50.728;4.160;2022-09-25T11:13:19;17.90;99.90
57636;DHT22;43465;50.728;4.160;2022-09-25T11:15:51;17.90;99.90
57636;DHT22;43465;50.728;4.160;2022-09-25T11:19:11;17.80;99.90
57636;DHT22;43465;50.728;4.160;2022-09-25T11:21:36;17.70;99.90
57636;DHT22;43465;50.728;4.160;2022-09-25T11:24:23;17.50;99.90
57636;DHT22;43465;50.728;4.160;2022-09-25T11:30:30;17.20;99.90
57636;DHT22;43465;50.728;4.160;2022-09-25T11:40:58;17.10;99.90
57636;DHT22;43465;50.728;4.160;2022-09-25T11:44:04;17.10;99.90
57636;DHT22;43465;50.728;4.160;2022-09-25T11:46:38;17.20;99.90
57636;DHT22;43465;50.728;4.160;2022-09-25T11:56:56;17.90;99.90
57636;DHT22;43465;50.728;4.160;2022-09-25T11:59:50;18.00;99.90
57636;DHT22;43465;50.728;4.160;2022-09-25T12:02:36;17.90;99.90
57636;DHT22;43465;50.728;4.160;2022-09-25T12:05:11;18.10;99.90
57636;DHT22;43465;50.728;4.160;2022-09-25T12:10:37;18.10;99.90
57636;DHT22;43465;50.728;4.160;2022-09-25T12:13:45;18.10;99.90
57636;DHT22;43465;50.728;4.160;2022-09-25T12:16:21;18.20;99.90
57636;DHT22;43465;50.728;4.160;2022-09-25T12:30:02;18.30;99.90
57636;DHT22;43465;50.728;4.160;2022-09-25T12:32:41;18.20;99.90
57636;DHT22;43465;50.728;4.160;2022-09-25T12:37:59;17.80;99.90
57636;DHT22;43465;50.728;4.160;2022-09-25T12:40:58;17.70;99.90
57636;DHT22;43465;50.728;4.160;2022-09-25T12:49:15;17.90;99.90
57636;DHT22;43465;50.728;4.160;2022-09-25T12:51:47;18.00;99.90
57636;DHT22;43465;50.728;4.160;2022-09-25T12:54:33;18.00;99.90
57636;DHT22;43465;50.728;4.160;2022-09-25T13:00:03;18.40;99.90
57636;DHT22;43465;50.728;4.160;2022-09-25T13:10:24;18.40;99.90
57636;DHT22;43465;50.728;4.160;2022-09-25T13:12:54;18.20;99.90
57636;DHT22;43465;50.728;4.160;2022-09-25T13:15:24;18.10;99.90
57636;DHT22;43465;50.728;4.160;2022-09-25T13:17:52;18.00;99.90
57636;DHT22;43465;50.728;4.160;2022-09-25T13:23:36;17.70;99.90
57636;DHT22;43465;50.728;4.160;2022-09-25T13:26:12;17.40;99.90
57636;DHT22;43465;50.728;4.160;2022-09-25T13:31:30;17.30;99.90
57636;DHT22;43465;50.728;4.160;2022-09-25T13:39:00;17.10;99.90
57636;DHT22;43465;50.728;4.160;2022-09-25T13:41:57;17.10;99.90
57636;DHT22;43465;50.728;4.160;2022-09-25T13:47:32;17.00;99.90
57636;DHT22;43465;50.728;4.160;2022-09-25T14:00:22;17.70;99.90
57636;DHT22;43465;50.728;4.160;2022-09-25T14:02:48;18.00;99.90
57636;DHT22;43465;50.728;4.160;2022-09-25T14:05:21;18.00;99.90
57636;DHT22;43465;50.728;4.160;2022-09-25T14:07:56;18.00;99.90
57636;DHT22;43465;50.728;4.160;2022-09-25T14:10:25;18.00;99.90
57636;DHT22;43465;50.728;4.160;2022-09-25T14:12:52;17.90;99.90
57636;DHT22;43465;50.728;4.160;2022-09-25T14:15:32;18.00;99.50
57636;DHT22;43465;50.728;4.160;2022-09-25T14:18:02;18.00;99.90
57636;DHT22;43465;50.728;4.160;2022-09-25T14:23:10;18.00;99.90
57636;DHT22;43465;50.728;4.160;2022-09-25T14:25:37;18.10;99.90
57636;DHT22;43465;50.728;4.160;2022-09-25T14:28:18;18.10;99.90
57636;DHT22;43465;50.728;4.160;2022-09-25T14:33:34;18.10;99.10
57636;DHT22;43465;50.728;4.160;2022-09-25T14:38:42;17.80;99.10
57636;DHT22;43465;50.728;4.160;2022-09-25T14:44:24;17.70;99.90
57636;DHT22;43465;50.728;4.160;2022-09-25T14:46:54;17.60;99.90
57636;DHT22;43465;50.728;4.160;2022-09-25T14:49:30;17.50;99.90
57636;DHT22;43465;50.728;4.160;2022-09-25T14:52:03;17.50;99.90
57636;DHT22;43465;50.728;4.160;2022-09-25T14:54:32;17.50;99.90
57636;DHT22;43465;50.728;4.160;2022-09-25T14:57:01;17.50;99.90
57636;DHT22;43465;50.728;4.160;2022-09-25T14:59:39;17.40;99.90
57636;DHT22;43465;50.728;4.160;2022-09-25T15:02:28;17.40;99.90
57636;DHT22;43465;50.728;4.160;2022-09-25T15:07:51;17.40;99.90
57636;DHT22;43465;50.728;4.160;2022-09-25T15:10:35;17.40;99.90
57636;DHT22;43465;50.728;4.160;2022-09-25T15:15:32;17.30;99.90
57636;DHT22;43465;50.728;4.160;2022-09-25T15:17:58;17.40;99.90
57636;DHT22;43465;50.728;4.160;2022-09-25T15:20:32;17.50;99.90
57636;DHT22;43465;50.728;4.160;2022-09-25T15:23:04;17.60;99.90
57636;DHT22;43465;50.728;4.160;2022-09-25T15:25:37;17.60;99.90
57636;DHT22;43465;50.728;4.160;2022-09-25T15:28:05;17.70;99.90
57636;DHT22;43465;50.728;4.160;2022-09-25T15:30:32;17.70;99.90
57636;DHT22;43465;50.728;4.160;2022-09-25T15:33:00;17.70;99.90
57636;DHT22;43465;50.728;4.160;2022-09-25T15:35:26;17.70;99.90
57636;DHT22;43465;50.728;4.160;2022-09-25T15:38:27;17.70;99.90
57636;DHT22;43465;50.728;4.160;2022-09-25T15:40:55;17.50;99.90
57636;DHT22;43465;50.728;4.160;2022-09-25T15:43:20;17.40;99.90
57636;DHT22;43465;50.728;4.160;2022-09-25T15:48:30;17.50;99.90
57636;DHT22;43465;50.728;4.160;2022-09-25T15:51:16;17.50;99.90
57636;DHT22;43465;50.728;4.160;2022-09-25T15:53:51;17.30;99.90
57636;DHT22;43465;50.728;4.160;2022-09-25T15:56:27;17.30;99.90
57636;DHT22;43465;50.728;4.160;2022-09-25T15:59:03;17.30;99.90
57636;DHT22;43465;50.728;4.160;2022-09-25T16:01:31;16.90;99.90
57636;DHT22;43465;50.728;4.160;2022-09-25T16:04:23;16.60;99.90
57636;DHT22;43465;50.728;4.160;2022-09-25T16:09:49;16.30;99.90
57636;DHT22;43465;50.728;4.160;2022-09-25T16:14:53;16.20;99.90
57636;DHT22;43465;50.728;4.160;2022-09-25T16:17:33;16.30;99.90
57636;DHT22;43465;50.728;4.160;2022-09-25T16:20:04;16.40;99.90
57636;DHT22;43465;50.728;4.160;2022-09-25T16:22:44;16.40;99.90
57636;DHT22;43465;50.728;4.160;2022-09-25T16:25:25;16.50;99.90
57636;DHT22;43465;50.728;4.160;2022-09-25T16:27:54;16.50;99.90
57636;DHT22;43465;50.728;4.160;2022-09-25T16:30:24;16.60;99.90
57636;DHT22;43465;50.728;4.160;2022-09-25T16:32:53;16.60;99.90
57636;DHT22;43465;50.728;4.160;2022-09-25T16:35:27;16.40;99.90
57636;DHT22;43465;50.728;4.160;2022-09-25T16:37:54;16.40;99.90
57636;DHT22;43465;50.728;4.160;2022-09-25T16:40:28;16.40;99.90
57636;DHT22;43465;50.728;4.160;2022-09-25T16:42:58;16.40;99.90
57636;DHT22;43465;50.728;4.160;2022-09-25T16:45:34;16.40;99.90
57636;DHT22;43465;50.728;4.160;2022-09-25T16:50:45;16.10;99.90
57636;DHT22;43465;50.728;4.160;2022-09-25T16:53:13;16.10;99.90
57636;DHT22;43465;50.728;4.160;2022-09-25T16:55:46;16.10;99.90
57636;DHT22;43465;50.728;4.160;2022-09-25T16:58:13;16.00;99.90
57636;DHT22;43465;50.728;4.160;2022-09-25T17:00:39;16.10;99.90
57636;DHT22;43465;50.728;4.160;2022-09-25T17:03:05;16.20;99.90
57636;DHT22;43465;50.728;4.160;2022-09-25T17:05:32;16.20;99.90
57636;DHT22;43465;50.728;4.160;2022-09-25T17:08:01;16.20;99.90
57636;DHT22;43465;50.728;4.160;2022-09-25T17:10:35;16.10;99.90
57636;DHT22;43465;50.728;4.160;2022-09-25T17:13:01;16.10;99.90
57636;DHT22;43465;50.728;4.160;2022-09-25T17:15:34;16.10;99.90
57636;DHT22;43465;50.728;4.160;2022-09-25T17:18:01;16.30;99.90
57636;DHT22;43465;50.728;4.160;2022-09-25T17:20:29;16.40;99.90
57636;DHT22;43465;50.728;4.160;2022-09-25T17:22:58;16.50;99.90
57636;DHT22;43465;50.728;4.160;2022-09-25T17:28:24;16.40;99.90
57636;DHT22;43465;50.728;4.160;2022-09-25T17:30:50;16.40;99.90
57636;DHT22;43465;50.728;4.160;2022-09-25T17:33:20;16.40;99.90
57636;DHT22;43465;50.728;4.160;2022-09-25T17:38:25;16.20;99.90
57636;DHT22;43465;50.728;4.160;2022-09-25T17:40:52;16.30;99.90
57636;DHT22;43465;50.728;4.160;2022-09-25T17:43:19;16.10;99.90
57636;DHT22;43465;50.728;4.160;2022-09-25T17:45:56;16.10;99.90
57636;DHT22;43465;50.728;4.160;2022-09-25T17:48:24;16.10;99.90
57636;DHT22;43465;50.728;4.160;2022-09-25T17:51:09;15.90;99.90
57636;DHT22;43465;50.728;4.160;2022-09-25T17:53:36;15.70;99.90
57636;DHT22;43465;50.728;4.160;2022-09-25T17:56:02;15.70;99.90
57636;DHT22;43465;50.728;4.160;2022-09-25T17:58:29;15.80;99.90
57636;DHT22;43465;50.728;4.160;2022-09-25T18:00:57;15.80;99.90
57636;DHT22;43465;50.728;4.160;2022-09-25T18:03:24;15.80;99.90
57636;DHT22;43465;50.728;4.160;2022-09-25T18:05:49;15.70;99.90
57636;DHT22;43465;50.728;4.160;2022-09-25T18:08:16;15.70;99.90
57636;DHT22;43465;50.728;4.160;2022-09-25T18:10:45;15.70;99.90
57636;DHT22;43465;50.728;4.160;2022-09-25T18:13:14;15.70;99.90
57636;DHT22;43465;50.728;4.160;2022-09-25T18:15:47;15.60;99.90
57636;DHT22;43465;50.728;4.160;2022-09-25T18:18:13;15.60;99.90
57636;DHT22;43465;50.728;4.160;2022-09-25T18:20:38;15.50;99.90
57636;DHT22;43465;50.728;4.160;2022-09-25T18:23:22;15.40;99.90
57636;DHT22;43465;50.728;4.160;2022-09-25T18:25:48;15.40;99.90
57636;DHT22;43465;50.728;4.160;2022-09-25T18:28:16;15.30;99.90
57636;DHT22;43465;50.728;4.160;2022-09-25T18:30:42;15.10;99.90
57636;DHT22;43465;50.728;4.160;2022-09-25T18:33:08;15.10;99.90
57636;DHT22;43465;50.728;4.160;2022-09-25T18:35:33;15.10;99.90
57636;DHT22;43465;50.728;4.160;2022-09-25T18:37:59;15.00;99.90
57636;DHT22;43465;50.728;4.160;2022-09-25T18:40:25;14.90;99.90
57636;DHT22;43465;50.728;4.160;2022-09-25T18:42:51;14.90;99.90
57636;DHT22;43465;50.728;4.160;2022-09-25T18:45:18;14.90;99.90
57636;DHT22;43465;50.728;4.160;2022-09-25T18:47:44;14.90;99.90
57636;DHT22;43465;50.728;4.160;2022-09-25T18:50:12;14.80;99.90
57636;DHT22;43465;50.728;4.160;2022-09-25T18:52:38;14.80;99.90
57636;DHT22;43465;50.728;4.160;2022-09-25T18:55:05;14.70;99.90